createdAt,value
2017-07-15T00:00:26.967Z,0
2017-07-15T00:01:07.515Z,0
2017-07-15T00:01:48.063Z,0
2017-07-15T00:02:28.592Z,0
2017-07-15T00:03:09.130Z,0
2017-07-15T00:03:49.668Z,0
2017-07-15T00:04:30.205Z,0
2017-07-15T00:05:10.747Z,0
2017-07-15T00:05:51.284Z,0
2017-07-15T00:06:31.820Z,0
2017-07-15T00:07:12.361Z,0
2017-07-15T00:07:52.904Z,0
2017-07-15T00:08:33.452Z,0
2017-07-15T00:09:13.987Z,0
2017-07-15T00:09:54.520Z,0
2017-07-15T00:10:35.056Z,0
2017-07-15T00:11:15.597Z,0
2017-07-15T00:11:56.134Z,0
2017-07-15T00:12:36.667Z,0
2017-07-15T00:13:17.203Z,0
2017-07-15T00:13:57.746Z,0
2017-07-15T00:14:38.283Z,0
2017-07-15T00:15:18.817Z,0
2017-07-15T00:15:59.356Z,0
2017-07-15T00:16:39.894Z,0
2017-07-15T00:17:20.429Z,0
2017-07-15T00:18:00.967Z,0
2017-07-15T00:18:41.508Z,0
2017-07-15T00:19:22.041Z,0
2017-07-15T00:20:02.576Z,0
2017-07-15T00:20:43.116Z,0
2017-07-15T00:21:23.667Z,0
2017-07-15T00:22:04.204Z,0
2017-07-15T00:22:44.746Z,0
2017-07-15T00:23:25.282Z,0
2017-07-15T00:24:05.816Z,0
2017-07-15T00:24:46.369Z,0
2017-07-15T00:25:26.915Z,0
2017-07-15T00:26:07.446Z,0
2017-07-15T00:26:48.023Z,0
2017-07-15T00:27:28.524Z,0
2017-07-15T00:28:09.063Z,0
2017-07-15T00:28:49.607Z,0
2017-07-15T00:29:30.145Z,0
2017-07-15T00:30:10.691Z,0
2017-07-15T00:30:51.224Z,0
2017-07-15T00:31:31.760Z,0
2017-07-15T00:32:12.335Z,0
2017-07-15T00:32:52.875Z,0
2017-07-15T00:33:33.413Z,0
2017-07-15T00:34:13.955Z,0
2017-07-15T00:34:54.488Z,0
2017-07-15T00:35:35.024Z,0
2017-07-15T00:36:15.563Z,0
2017-07-15T00:36:56.099Z,0
2017-07-15T00:37:36.632Z,0
2017-07-15T00:38:17.177Z,0
2017-07-15T00:38:57.715Z,0
2017-07-15T00:39:38.256Z,0
2017-07-15T00:40:18.794Z,0
2017-07-15T00:40:59.335Z,0
2017-07-15T00:41:39.868Z,0
2017-07-15T00:42:20.430Z,0
2017-07-15T00:43:00.971Z,0
2017-07-15T00:43:41.516Z,0
2017-07-15T00:44:22.056Z,0
2017-07-15T00:45:02.592Z,0
2017-07-15T00:45:43.136Z,0
2017-07-15T00:46:23.671Z,0
2017-07-15T00:47:04.207Z,0
2017-07-15T00:47:44.745Z,0
2017-07-15T00:48:25.283Z,0
2017-07-15T00:49:05.825Z,0
2017-07-15T00:49:46.366Z,0
2017-07-15T00:50:26.908Z,0
2017-07-15T00:51:07.443Z,0
2017-07-15T00:51:47.990Z,0
2017-07-15T00:52:28.534Z,0
2017-07-15T00:53:09.058Z,0
2017-07-15T00:53:49.598Z,0
2017-07-15T00:54:30.134Z,0
2017-07-15T00:55:10.677Z,0
2017-07-15T00:55:51.215Z,0
2017-07-15T00:56:31.748Z,0
2017-07-15T00:57:12.294Z,0
2017-07-15T00:57:52.831Z,0
2017-07-15T00:58:33.367Z,0
2017-07-15T00:59:13.915Z,0
2017-07-15T00:59:54.446Z,0
2017-07-15T01:00:34.978Z,0
2017-07-15T01:01:15.517Z,0
2017-07-15T01:01:56.058Z,0
2017-07-15T01:02:36.600Z,0
2017-07-15T01:03:17.140Z,0
2017-07-15T01:03:57.672Z,0
2017-07-15T01:04:38.209Z,0
2017-07-15T01:05:18.748Z,0
2017-07-15T01:05:59.286Z,0
2017-07-15T01:06:39.824Z,0
2017-07-15T01:07:20.382Z,0
2017-07-15T01:08:00.903Z,0
2017-07-15T01:08:41.445Z,0
2017-07-15T01:09:21.978Z,0
2017-07-15T01:10:02.513Z,0
2017-07-15T01:10:43.045Z,0
2017-07-15T01:11:23.588Z,0
2017-07-15T01:12:04.128Z,0
2017-07-15T01:12:44.669Z,0
2017-07-15T01:13:25.207Z,0
2017-07-15T01:14:05.745Z,0
2017-07-15T01:14:46.283Z,0
2017-07-15T01:15:26.816Z,0
2017-07-15T01:16:07.391Z,0
2017-07-15T01:16:47.926Z,0
2017-07-15T01:17:28.463Z,0
2017-07-15T01:18:08.999Z,0
2017-07-15T01:18:49.533Z,0
2017-07-15T01:19:30.078Z,0
2017-07-15T01:20:10.615Z,0
2017-07-15T01:20:51.156Z,0
2017-07-15T01:21:31.677Z,0
2017-07-15T01:22:12.215Z,0
2017-07-15T01:22:52.752Z,0
2017-07-15T01:23:33.288Z,0
2017-07-15T01:24:13.830Z,0
2017-07-15T01:24:54.366Z,0
2017-07-15T01:25:34.903Z,0
2017-07-15T01:26:15.448Z,0
2017-07-15T01:26:55.982Z,0
2017-07-15T01:27:36.519Z,0
2017-07-15T01:28:17.058Z,0
2017-07-15T01:28:57.592Z,0
2017-07-15T01:29:38.134Z,0
2017-07-15T01:30:18.673Z,0
2017-07-15T01:30:59.214Z,0
2017-07-15T01:31:39.751Z,0
2017-07-15T01:32:20.291Z,0
2017-07-15T01:33:00.825Z,0
2017-07-15T01:33:41.364Z,0
2017-07-15T01:34:21.908Z,0
2017-07-15T01:35:02.449Z,0
2017-07-15T01:35:42.986Z,0
2017-07-15T01:36:23.539Z,0
2017-07-15T01:37:04.078Z,0
2017-07-15T01:37:44.609Z,0
2017-07-15T01:38:25.182Z,0
2017-07-15T01:39:05.734Z,0
2017-07-15T01:39:46.260Z,0
2017-07-15T01:40:26.791Z,0
2017-07-15T01:41:07.326Z,0
2017-07-15T01:41:47.866Z,0
2017-07-15T01:42:28.404Z,0
2017-07-15T01:43:08.946Z,0
2017-07-15T01:43:49.484Z,0
2017-07-15T01:44:30.014Z,0
2017-07-15T01:45:10.554Z,0
2017-07-15T01:45:51.094Z,0
2017-07-15T01:46:31.622Z,0
2017-07-15T01:47:12.166Z,0
2017-07-15T01:47:52.708Z,0
2017-07-15T01:48:33.254Z,0
2017-07-15T01:49:13.790Z,0
2017-07-15T01:49:54.327Z,0
2017-07-15T01:50:34.855Z,0
2017-07-15T01:51:15.388Z,0
2017-07-15T01:51:55.929Z,0
2017-07-15T01:52:36.465Z,0
2017-07-15T01:53:17.005Z,0
2017-07-15T01:53:57.544Z,0
2017-07-15T01:54:38.086Z,0
2017-07-15T01:55:18.627Z,0
2017-07-15T01:55:59.164Z,0
2017-07-15T01:56:39.704Z,0
2017-07-15T01:57:20.244Z,0
2017-07-15T01:58:00.782Z,0
2017-07-15T01:58:41.320Z,0
2017-07-15T01:59:21.861Z,0
2017-07-15T02:00:02.399Z,0
2017-07-15T02:00:42.939Z,0
2017-07-15T02:01:23.479Z,0
2017-07-15T02:02:04.016Z,0
2017-07-15T02:02:44.554Z,0
2017-07-15T02:03:25.100Z,0
2017-07-15T02:04:05.637Z,0
2017-07-15T02:04:46.174Z,0
2017-07-15T02:05:26.709Z,0
2017-07-15T02:06:07.258Z,0
2017-07-15T02:06:47.852Z,0
2017-07-15T02:07:28.419Z,0
2017-07-15T02:08:08.937Z,0
2017-07-15T02:08:49.490Z,0
2017-07-15T02:09:30.029Z,0
2017-07-15T02:10:10.571Z,0
2017-07-15T02:10:51.110Z,0
2017-07-15T02:11:31.641Z,0
2017-07-15T02:12:12.171Z,0
2017-07-15T02:12:52.709Z,0
2017-07-15T02:13:33.245Z,0
2017-07-15T02:14:13.784Z,0
2017-07-15T02:14:54.318Z,0
2017-07-15T02:15:34.863Z,0
2017-07-15T02:16:15.404Z,0
2017-07-15T02:16:55.934Z,0
2017-07-15T02:17:36.474Z,0
2017-07-15T02:18:17.012Z,0
2017-07-15T02:18:57.550Z,0
2017-07-15T02:19:38.088Z,0
2017-07-15T02:20:18.631Z,0
2017-07-15T02:20:59.169Z,0
2017-07-15T02:21:39.709Z,0
2017-07-15T02:22:20.240Z,0
2017-07-15T02:23:00.775Z,0
2017-07-15T02:23:41.317Z,0
2017-07-15T02:24:21.860Z,0
2017-07-15T02:25:02.393Z,0
2017-07-15T02:25:42.936Z,0
2017-07-15T02:26:23.473Z,0
2017-07-15T02:27:04.009Z,0
2017-07-15T02:27:44.545Z,0
2017-07-15T02:28:25.082Z,0
2017-07-15T02:29:05.621Z,0
2017-07-15T02:29:46.165Z,0
2017-07-15T02:30:26.699Z,0
2017-07-15T02:31:07.240Z,0
2017-07-15T02:31:47.780Z,0
2017-07-15T02:32:28.318Z,0
2017-07-15T02:33:08.859Z,0
2017-07-15T02:33:49.398Z,0
2017-07-15T02:34:30.023Z,0
2017-07-15T02:35:10.569Z,0
2017-07-15T02:35:51.107Z,0
2017-07-15T02:36:31.637Z,0
2017-07-15T02:37:12.189Z,0
2017-07-15T02:37:52.726Z,0
2017-07-15T02:38:33.266Z,0
2017-07-15T02:39:13.805Z,0
2017-07-15T02:39:54.346Z,0
2017-07-15T02:40:34.883Z,0
2017-07-15T02:41:15.418Z,0
2017-07-15T02:41:55.966Z,0
2017-07-15T02:42:36.502Z,0
2017-07-15T02:43:17.042Z,0
2017-07-15T02:43:57.583Z,0
2017-07-15T02:44:38.123Z,0
2017-07-15T02:45:18.663Z,0
2017-07-15T02:45:59.202Z,0
2017-07-15T02:46:39.741Z,0
2017-07-15T02:47:20.285Z,0
2017-07-15T02:48:00.819Z,0
2017-07-15T02:48:41.372Z,0
2017-07-15T02:49:21.920Z,0
2017-07-15T02:50:02.461Z,0
2017-07-15T02:50:43.000Z,0
2017-07-15T02:51:23.530Z,0
2017-07-15T02:52:04.070Z,0
2017-07-15T02:52:44.609Z,0
2017-07-15T02:53:25.150Z,0
2017-07-15T02:54:05.686Z,0
2017-07-15T02:54:46.222Z,0
2017-07-15T02:55:26.761Z,0
2017-07-15T02:56:07.308Z,0
2017-07-15T02:56:47.856Z,0
2017-07-15T02:57:28.392Z,0
2017-07-15T02:58:09.018Z,0
2017-07-15T02:58:49.557Z,0
2017-07-15T02:59:30.094Z,0
2017-07-15T03:00:10.631Z,0
2017-07-15T03:00:51.175Z,0
2017-07-15T03:01:31.720Z,0
2017-07-15T03:02:12.273Z,0
2017-07-15T03:02:52.793Z,0
2017-07-15T03:03:33.333Z,0
2017-07-15T03:04:13.871Z,0
2017-07-15T03:04:54.414Z,0
2017-07-15T03:05:34.951Z,0
2017-07-15T03:06:15.489Z,0
2017-07-15T03:06:56.029Z,0
2017-07-15T03:07:36.568Z,0
2017-07-15T03:08:17.097Z,0
2017-07-15T03:08:57.638Z,0
2017-07-15T03:09:38.177Z,0
2017-07-15T03:10:18.717Z,0
2017-07-15T03:10:59.258Z,0
2017-07-15T03:11:39.796Z,0
2017-07-15T03:12:20.339Z,0
2017-07-15T03:13:00.883Z,0
2017-07-15T03:13:41.425Z,0
2017-07-15T03:14:21.965Z,0
2017-07-15T03:15:02.504Z,0
2017-07-15T03:15:43.043Z,0
2017-07-15T03:16:23.577Z,0
2017-07-15T03:17:04.116Z,0
2017-07-15T03:17:44.652Z,0
2017-07-15T03:18:25.188Z,0
2017-07-15T03:19:05.731Z,0
2017-07-15T03:19:46.261Z,0
2017-07-15T03:20:26.801Z,0
2017-07-15T03:21:07.348Z,0
2017-07-15T03:21:47.877Z,0
2017-07-15T03:22:28.435Z,0
2017-07-15T03:23:08.968Z,0
2017-07-15T03:23:49.522Z,0
2017-07-15T03:24:30.059Z,0
2017-07-15T03:25:10.606Z,0
2017-07-15T03:25:51.148Z,0
2017-07-15T03:26:31.681Z,0
2017-07-15T03:27:12.207Z,0
2017-07-15T03:27:52.744Z,0
2017-07-15T03:28:33.281Z,0
2017-07-15T03:29:13.827Z,0
2017-07-15T03:29:54.361Z,5
2017-07-15T03:30:34.902Z,5
2017-07-15T03:31:15.441Z,5
2017-07-15T03:31:55.985Z,5
2017-07-15T03:32:36.522Z,5
2017-07-15T03:33:17.050Z,5
2017-07-15T03:33:57.581Z,5
2017-07-15T03:34:38.119Z,5
2017-07-15T03:35:18.667Z,5
2017-07-15T03:35:59.201Z,5
2017-07-15T03:36:39.773Z,5
2017-07-15T03:37:20.310Z,5
2017-07-15T03:38:00.849Z,10
2017-07-15T03:38:41.389Z,10
2017-07-15T03:39:21.927Z,10
2017-07-15T03:40:02.465Z,10
2017-07-15T03:40:42.996Z,10
2017-07-15T03:41:23.537Z,10
2017-07-15T03:42:04.079Z,10
2017-07-15T03:42:44.623Z,10
2017-07-15T03:43:25.167Z,10
2017-07-15T03:44:05.703Z,10
2017-07-15T03:44:46.233Z,15
2017-07-15T03:45:26.771Z,15
2017-07-15T03:46:07.312Z,15
2017-07-15T03:46:47.851Z,15
2017-07-15T03:47:28.384Z,15
2017-07-15T03:48:08.928Z,15
2017-07-15T03:48:49.459Z,15
2017-07-15T03:49:30.007Z,15
2017-07-15T03:50:10.542Z,15
2017-07-15T03:50:51.076Z,15
2017-07-15T03:51:31.610Z,15
2017-07-15T03:52:12.150Z,15
2017-07-15T03:52:52.695Z,20
2017-07-15T03:53:33.233Z,20
2017-07-15T03:54:13.780Z,20
2017-07-15T03:54:54.327Z,20
2017-07-15T03:55:34.874Z,20
2017-07-15T03:56:15.493Z,20
2017-07-15T03:56:56.037Z,25
2017-07-15T03:57:36.574Z,25
2017-07-15T03:58:17.116Z,25
2017-07-15T03:58:57.646Z,25
2017-07-15T03:59:38.193Z,30
2017-07-15T04:00:18.742Z,30
2017-07-15T04:00:59.289Z,30
2017-07-15T04:01:39.835Z,30
2017-07-15T04:02:20.373Z,30
2017-07-15T04:03:00.911Z,35
2017-07-15T04:03:41.453Z,35
2017-07-15T04:04:21.991Z,35
2017-07-15T04:05:02.532Z,40
2017-07-15T04:05:43.074Z,40
2017-07-15T04:06:23.692Z,40
2017-07-15T04:07:04.230Z,40
2017-07-15T04:07:44.772Z,40
2017-07-15T04:08:25.309Z,45
2017-07-15T04:09:05.849Z,45
2017-07-15T04:09:46.389Z,45
2017-07-15T04:10:26.930Z,45
2017-07-15T04:11:07.471Z,45
2017-07-15T04:11:48.002Z,45
2017-07-15T04:12:28.536Z,45
2017-07-15T04:13:09.084Z,45
2017-07-15T04:13:49.622Z,45
2017-07-15T04:14:30.158Z,45
2017-07-15T04:15:10.698Z,45
2017-07-15T04:15:51.236Z,45
2017-07-15T04:16:31.774Z,50
2017-07-15T04:17:12.311Z,50
2017-07-15T04:17:52.856Z,55
2017-07-15T04:18:33.413Z,55
2017-07-15T04:19:13.947Z,55
2017-07-15T04:19:54.496Z,60
2017-07-15T04:20:35.029Z,60
2017-07-15T04:21:15.571Z,65
2017-07-15T04:21:56.102Z,65
2017-07-15T04:22:36.641Z,65
2017-07-15T04:23:17.196Z,70
2017-07-15T04:23:57.731Z,70
2017-07-15T04:24:38.269Z,70
2017-07-15T04:25:18.796Z,75
2017-07-15T04:25:59.340Z,75
2017-07-15T04:26:39.874Z,75
2017-07-15T04:27:20.445Z,75
2017-07-15T04:28:00.949Z,70
2017-07-15T04:28:41.487Z,70
2017-07-15T04:29:22.037Z,70
2017-07-15T04:30:02.573Z,70
2017-07-15T04:30:43.103Z,70
2017-07-15T04:31:23.639Z,75
2017-07-15T04:32:04.174Z,75
2017-07-15T04:32:44.709Z,80
2017-07-15T04:33:25.256Z,80
2017-07-15T04:34:05.785Z,80
2017-07-15T04:34:46.304Z,80
2017-07-15T04:35:26.815Z,80
2017-07-15T04:36:07.338Z,80
2017-07-15T04:36:47.847Z,80
2017-07-15T04:37:28.388Z,80
2017-07-15T04:38:08.975Z,80
2017-07-15T04:38:49.460Z,80
2017-07-15T04:39:29.982Z,80
2017-07-15T04:40:10.501Z,80
2017-07-15T04:40:51.046Z,80
2017-07-15T04:41:31.574Z,80
2017-07-15T04:42:12.131Z,80
2017-07-15T04:42:52.669Z,80
2017-07-15T04:43:33.212Z,80
2017-07-15T04:44:13.748Z,80
2017-07-15T04:44:54.309Z,80
2017-07-15T04:45:34.841Z,80
2017-07-15T04:46:15.371Z,80
2017-07-15T04:46:55.881Z,85
2017-07-15T04:47:36.398Z,85
2017-07-15T04:48:16.897Z,85
2017-07-15T04:48:57.412Z,85
2017-07-15T04:49:37.939Z,85
2017-07-15T04:50:18.464Z,90
2017-07-15T04:50:58.968Z,90
2017-07-15T04:51:39.491Z,90
2017-07-15T04:52:20.024Z,90
2017-07-15T04:53:00.559Z,90
2017-07-15T04:53:41.068Z,90
2017-07-15T04:54:21.605Z,90
2017-07-15T04:55:02.138Z,90
2017-07-15T04:55:42.649Z,85
2017-07-15T04:56:23.178Z,85
2017-07-15T04:57:03.699Z,85
2017-07-15T04:57:44.227Z,85
2017-07-15T04:58:24.770Z,85
2017-07-15T04:59:05.299Z,90
2017-07-15T04:59:45.831Z,90
2017-07-15T05:00:26.357Z,90
2017-07-15T05:01:06.940Z,90
2017-07-15T05:01:47.451Z,90
2017-07-15T05:02:27.971Z,90
2017-07-15T05:03:08.503Z,85
2017-07-15T05:03:49.217Z,85
2017-07-15T05:04:29.744Z,90
2017-07-15T05:05:10.272Z,90
2017-07-15T05:05:50.780Z,95
2017-07-15T05:06:31.287Z,100
2017-07-15T05:07:11.791Z,105
2017-07-15T05:07:52.302Z,115
2017-07-15T05:08:32.821Z,120
2017-07-15T05:09:13.352Z,125
2017-07-15T05:09:53.884Z,125
2017-07-15T05:10:34.401Z,120
2017-07-15T05:11:14.902Z,125
2017-07-15T05:11:55.935Z,125
2017-07-15T05:12:36.493Z,120
2017-07-15T05:13:17.019Z,115
2017-07-15T05:13:57.549Z,120
2017-07-15T05:14:38.031Z,115
2017-07-15T05:15:18.557Z,115
2017-07-15T05:15:59.084Z,115
2017-07-15T05:16:39.619Z,120
2017-07-15T05:17:20.118Z,120
2017-07-15T05:18:00.650Z,125
2017-07-15T05:18:41.196Z,135
2017-07-15T05:19:21.705Z,140
2017-07-15T05:20:02.215Z,125
2017-07-15T05:20:42.764Z,115
2017-07-15T05:21:23.281Z,110
2017-07-15T05:22:03.811Z,110
2017-07-15T05:22:44.335Z,105
2017-07-15T05:23:24.868Z,100
2017-07-15T05:24:05.402Z,100
2017-07-15T05:24:45.925Z,100
2017-07-15T05:25:26.469Z,100
2017-07-15T05:26:07.007Z,105
2017-07-15T05:26:47.526Z,105
2017-07-15T05:27:28.095Z,105
2017-07-15T05:28:08.640Z,105
2017-07-15T05:28:49.190Z,100
2017-07-15T05:29:29.713Z,100
2017-07-15T05:30:10.265Z,100
2017-07-15T05:30:50.775Z,95
2017-07-15T05:31:31.315Z,95
2017-07-15T05:32:11.839Z,95
2017-07-15T05:32:52.397Z,100
2017-07-15T05:33:32.918Z,95
2017-07-15T05:34:13.452Z,95
2017-07-15T05:34:53.974Z,95
2017-07-15T05:35:34.503Z,90
2017-07-15T05:36:15.046Z,90
2017-07-15T05:36:55.593Z,95
2017-07-15T05:37:36.145Z,95
2017-07-15T05:38:16.706Z,95
2017-07-15T05:38:57.246Z,95
2017-07-15T05:39:37.781Z,95
2017-07-15T05:40:18.332Z,95
2017-07-15T05:40:58.880Z,95
2017-07-15T05:41:39.422Z,90
2017-07-15T05:42:19.985Z,90
2017-07-15T05:43:00.523Z,95
2017-07-15T05:43:41.065Z,100
2017-07-15T05:44:21.603Z,105
2017-07-15T05:45:02.142Z,105
2017-07-15T05:45:42.685Z,115
2017-07-15T05:46:23.224Z,120
2017-07-15T05:47:03.762Z,125
2017-07-15T05:47:44.298Z,135
2017-07-15T05:48:24.839Z,140
2017-07-15T05:49:05.407Z,140
2017-07-15T05:49:45.957Z,140
2017-07-15T05:50:26.497Z,140
2017-07-15T05:51:07.033Z,140
2017-07-15T05:51:47.578Z,135
2017-07-15T05:52:28.123Z,135
2017-07-15T05:53:08.823Z,140
2017-07-15T05:53:49.569Z,145
2017-07-15T05:54:30.119Z,145
2017-07-15T05:55:10.656Z,145
2017-07-15T05:55:51.197Z,145
2017-07-15T05:56:31.736Z,135
2017-07-15T05:57:12.274Z,125
2017-07-15T05:57:52.816Z,120
2017-07-15T05:58:33.357Z,120
2017-07-15T05:59:13.896Z,120
2017-07-15T05:59:54.436Z,130
2017-07-15T06:00:34.976Z,130
2017-07-15T06:01:15.513Z,135
2017-07-15T06:01:56.061Z,130
2017-07-15T06:02:36.605Z,125
2017-07-15T06:03:17.153Z,125
2017-07-15T06:03:57.695Z,130
2017-07-15T06:04:38.243Z,130
2017-07-15T06:05:18.762Z,135
2017-07-15T06:05:59.304Z,140
2017-07-15T06:06:39.842Z,145
2017-07-15T06:07:20.374Z,145
2017-07-15T06:08:00.919Z,155
2017-07-15T06:08:41.460Z,150
2017-07-15T06:09:21.999Z,150
2017-07-15T06:10:02.523Z,155
2017-07-15T06:10:43.065Z,160
2017-07-15T06:11:23.609Z,165
2017-07-15T06:12:04.148Z,165
2017-07-15T06:12:44.691Z,170
2017-07-15T06:13:25.237Z,190
2017-07-15T06:14:05.777Z,190
2017-07-15T06:14:46.315Z,195
2017-07-15T06:15:26.853Z,195
2017-07-15T06:16:07.394Z,190
2017-07-15T06:16:47.934Z,185
2017-07-15T06:17:28.474Z,185
2017-07-15T06:18:09.012Z,185
2017-07-15T06:18:49.550Z,185
2017-07-15T06:19:30.095Z,175
2017-07-15T06:20:10.633Z,170
2017-07-15T06:20:51.165Z,170
2017-07-15T06:21:31.715Z,175
2017-07-15T06:22:12.251Z,175
2017-07-15T06:22:52.790Z,180
2017-07-15T06:23:33.331Z,195
2017-07-15T06:24:13.869Z,205
2017-07-15T06:24:54.406Z,210
2017-07-15T06:25:34.942Z,220
2017-07-15T06:26:15.500Z,210
2017-07-15T06:26:56.038Z,205
2017-07-15T06:27:36.586Z,200
2017-07-15T06:28:17.129Z,195
2017-07-15T06:28:57.669Z,210
2017-07-15T06:29:38.221Z,220
2017-07-15T06:30:18.750Z,245
2017-07-15T06:30:59.290Z,270
2017-07-15T06:31:39.827Z,290
2017-07-15T06:32:20.378Z,295
2017-07-15T06:33:00.909Z,310
2017-07-15T06:33:41.445Z,310
2017-07-15T06:34:21.988Z,310
2017-07-15T06:35:02.523Z,310
2017-07-15T06:35:43.056Z,310
2017-07-15T06:36:23.607Z,305
2017-07-15T06:37:04.150Z,305
2017-07-15T06:37:44.681Z,310
2017-07-15T06:38:25.221Z,320
2017-07-15T06:39:05.797Z,320
2017-07-15T06:39:46.307Z,320
2017-07-15T06:40:26.851Z,320
2017-07-15T06:41:07.401Z,315
2017-07-15T06:41:47.930Z,305
2017-07-15T06:42:28.484Z,305
2017-07-15T06:43:09.032Z,305
2017-07-15T06:43:49.598Z,300
2017-07-15T06:44:30.137Z,305
2017-07-15T06:45:10.674Z,310
2017-07-15T06:45:51.213Z,305
2017-07-15T06:46:31.757Z,305
2017-07-15T06:47:12.295Z,300
2017-07-15T06:47:52.836Z,295
2017-07-15T06:48:33.374Z,285
2017-07-15T06:49:13.913Z,270
2017-07-15T06:49:54.448Z,265
2017-07-15T06:50:35.016Z,250
2017-07-15T06:51:15.542Z,235
2017-07-15T06:51:56.090Z,235
2017-07-15T06:52:36.611Z,240
2017-07-15T06:53:17.127Z,255
2017-07-15T06:53:57.672Z,270
2017-07-15T06:54:38.201Z,280
2017-07-15T06:55:18.750Z,290
2017-07-15T06:55:59.285Z,295
2017-07-15T06:56:39.826Z,295
2017-07-15T06:57:20.367Z,305
2017-07-15T06:58:00.893Z,295
2017-07-15T06:58:41.431Z,285
2017-07-15T06:59:21.968Z,290
2017-07-15T07:00:02.503Z,285
2017-07-15T07:00:43.049Z,290
2017-07-15T07:01:23.584Z,280
2017-07-15T07:02:04.496Z,285
2017-07-15T07:02:45.095Z,310
2017-07-15T07:03:25.633Z,305
2017-07-15T07:04:06.358Z,305
2017-07-15T07:04:46.889Z,340
2017-07-15T07:05:27.425Z,320
2017-07-15T07:06:07.977Z,265
2017-07-15T07:06:48.648Z,225
2017-07-15T07:07:29.121Z,195
2017-07-15T07:08:09.662Z,165
2017-07-15T07:08:50.423Z,165
2017-07-15T07:09:30.960Z,185
2017-07-15T07:10:11.654Z,190
2017-07-15T07:10:52.181Z,200
2017-07-15T07:11:32.723Z,210
2017-07-15T07:12:13.269Z,215
2017-07-15T07:12:54.062Z,215
2017-07-15T07:13:34.600Z,230
2017-07-15T07:14:15.310Z,230
2017-07-15T07:14:55.913Z,230
2017-07-15T07:15:36.455Z,235
2017-07-15T07:16:16.992Z,240
2017-07-15T07:16:57.773Z,250
2017-07-15T07:17:38.316Z,260
2017-07-15T07:18:18.848Z,265
2017-07-15T07:18:59.384Z,275
2017-07-15T07:19:39.910Z,285
2017-07-15T07:20:20.462Z,295
2017-07-15T07:21:01.238Z,310
2017-07-15T07:21:42.644Z,320
2017-07-15T07:22:23.279Z,315
2017-07-15T07:23:04.655Z,320
2017-07-15T07:23:45.176Z,335
2017-07-15T07:24:25.720Z,355
2017-07-15T07:25:06.257Z,390
2017-07-15T07:25:46.767Z,400
2017-07-15T07:26:27.309Z,420
2017-07-15T07:27:07.859Z,455
2017-07-15T07:27:48.402Z,455
2017-07-15T07:28:28.932Z,450
2017-07-15T07:29:09.467Z,465
2017-07-15T07:29:49.992Z,500
2017-07-15T07:30:30.514Z,525
2017-07-15T07:31:11.030Z,480
2017-07-15T07:31:51.567Z,460
2017-07-15T07:32:32.113Z,465
2017-07-15T07:33:12.652Z,435
2017-07-15T07:33:53.173Z,445
2017-07-15T07:34:33.711Z,485
2017-07-15T07:35:14.239Z,425
2017-07-15T07:35:54.783Z,440
2017-07-15T07:36:35.319Z,305
2017-07-15T07:37:15.859Z,270
2017-07-15T07:37:56.399Z,280
2017-07-15T07:38:36.974Z,280
2017-07-15T07:39:17.877Z,310
2017-07-15T07:39:58.481Z,315
2017-07-15T07:40:39.004Z,270
2017-07-15T07:41:19.538Z,195
2017-07-15T07:42:00.081Z,185
2017-07-15T07:42:40.622Z,175
2017-07-15T07:43:21.173Z,160
2017-07-15T07:44:02.800Z,160
2017-07-15T07:44:43.354Z,180
2017-07-15T07:45:23.897Z,180
2017-07-15T07:46:04.436Z,160
2017-07-15T07:46:44.978Z,140
2017-07-15T07:47:25.518Z,130
2017-07-15T07:48:06.067Z,145
2017-07-15T07:48:46.604Z,170
2017-07-15T07:49:27.150Z,210
2017-07-15T07:50:07.690Z,230
2017-07-15T07:50:48.272Z,235
2017-07-15T07:51:28.818Z,235
2017-07-15T07:52:09.362Z,255
2017-07-15T07:52:49.910Z,275
2017-07-15T07:53:30.460Z,310
2017-07-15T07:54:11.002Z,345
2017-07-15T07:54:51.546Z,375
2017-07-15T07:55:32.067Z,350
2017-07-15T07:56:12.611Z,345
2017-07-15T07:56:53.147Z,380
2017-07-15T07:57:33.711Z,495
2017-07-15T07:58:14.254Z,500
2017-07-15T07:58:54.793Z,440
2017-07-15T07:59:35.312Z,375
2017-07-15T08:00:15.850Z,390
2017-07-15T08:00:56.392Z,370
2017-07-15T08:01:36.930Z,340
2017-07-15T08:02:17.467Z,310
2017-07-15T08:02:58.009Z,340
2017-07-15T08:03:38.552Z,360
2017-07-15T08:04:19.094Z,345
2017-07-15T08:04:59.643Z,355
2017-07-15T08:05:40.182Z,365
2017-07-15T08:06:20.723Z,405
2017-07-15T08:07:01.269Z,430
2017-07-15T08:07:41.809Z,480
2017-07-15T08:08:22.354Z,475
2017-07-15T08:09:02.897Z,515
2017-07-15T08:09:43.443Z,465
2017-07-15T08:10:23.989Z,445
2017-07-15T08:11:04.519Z,375
2017-07-15T08:11:45.061Z,360
2017-07-15T08:12:25.597Z,345
2017-07-15T08:13:06.138Z,355
2017-07-15T08:13:46.683Z,395
2017-07-15T08:14:27.230Z,435
2017-07-15T08:15:07.769Z,475
2017-07-15T08:15:48.315Z,490
2017-07-15T08:16:28.884Z,490
2017-07-15T08:17:09.409Z,480
2017-07-15T08:17:49.951Z,495
2017-07-15T08:18:30.495Z,505
2017-07-15T08:19:11.035Z,580
2017-07-15T08:19:51.591Z,660
2017-07-15T08:20:32.126Z,690
2017-07-15T08:21:12.669Z,760
2017-07-15T08:21:53.210Z,825
2017-07-15T08:22:33.757Z,865
2017-07-15T08:23:14.299Z,1755
2017-07-15T08:23:54.840Z,2145
2017-07-15T08:24:35.386Z,1525
2017-07-15T08:25:15.926Z,1715
2017-07-15T08:25:56.476Z,1020
2017-07-15T08:26:37.023Z,975
2017-07-15T08:27:17.573Z,1110
2017-07-15T08:27:58.121Z,1815
2017-07-15T08:28:38.657Z,1565
2017-07-15T08:29:19.200Z,1850
2017-07-15T08:29:59.727Z,2730
2017-07-15T08:30:40.269Z,2615
2017-07-15T08:31:20.815Z,2635
2017-07-15T08:32:01.358Z,2750
2017-07-15T08:32:41.888Z,2525
2017-07-15T08:33:22.432Z,2655
2017-07-15T08:34:03.033Z,2890
2017-07-15T08:34:43.579Z,2610
2017-07-15T08:35:24.103Z,2455
2017-07-15T08:36:04.651Z,2115
2017-07-15T08:36:45.188Z,2015
2017-07-15T08:37:25.740Z,2560
2017-07-15T08:38:06.288Z,3025
2017-07-15T08:38:46.826Z,3100
2017-07-15T08:39:27.379Z,3040
2017-07-15T08:40:07.918Z,3025
2017-07-15T08:40:48.461Z,2550
2017-07-15T08:41:29.006Z,2740
2017-07-15T08:42:09.550Z,2755
2017-07-15T08:42:50.094Z,3240
2017-07-15T08:43:30.632Z,2960
2017-07-15T08:44:11.184Z,2985
2017-07-15T08:44:51.730Z,3105
2017-07-15T08:45:32.274Z,3140
2017-07-15T08:46:12.821Z,3125
2017-07-15T08:46:53.398Z,3120
2017-07-15T08:47:33.916Z,3100
2017-07-15T08:48:14.455Z,3185
2017-07-15T08:48:55.050Z,3245
2017-07-15T08:49:35.595Z,3280
2017-07-15T08:50:16.143Z,3365
2017-07-15T08:50:56.687Z,3400
2017-07-15T08:51:37.232Z,3290
2017-07-15T08:52:17.777Z,3050
2017-07-15T08:52:58.328Z,355
2017-07-15T08:53:38.877Z,350
2017-07-15T08:54:19.442Z,3335
2017-07-15T08:54:59.985Z,3290
2017-07-15T08:55:40.528Z,3350
2017-07-15T08:56:21.080Z,3375
2017-07-15T08:57:01.701Z,3355
2017-07-15T08:57:42.245Z,505
2017-07-15T08:58:22.797Z,3390
2017-07-15T08:59:03.338Z,430
2017-07-15T08:59:43.893Z,3405
2017-07-15T09:00:24.438Z,3315
2017-07-15T09:01:04.951Z,3265
2017-07-15T09:01:45.504Z,3135
2017-07-15T09:02:26.047Z,3195
2017-07-15T09:03:06.594Z,3260
2017-07-15T09:03:47.143Z,3300
2017-07-15T09:04:27.689Z,3375
2017-07-15T09:05:08.252Z,3435
2017-07-15T09:05:48.796Z,3495
2017-07-15T09:06:29.352Z,3630
2017-07-15T09:07:09.903Z,3525
2017-07-15T09:07:50.445Z,3560
2017-07-15T09:08:30.994Z,1410
2017-07-15T09:09:11.580Z,3330
2017-07-15T09:09:52.119Z,3245
2017-07-15T09:10:32.663Z,3175
2017-07-15T09:11:13.220Z,3200
2017-07-15T09:11:53.759Z,3270
2017-07-15T09:12:34.307Z,3335
2017-07-15T09:13:14.854Z,3400
2017-07-15T09:13:55.402Z,3440
2017-07-15T09:14:35.953Z,2970
2017-07-15T09:15:16.505Z,2040
2017-07-15T09:15:57.050Z,1485
2017-07-15T09:16:37.605Z,410
2017-07-15T09:17:18.145Z,3720
2017-07-15T09:17:58.718Z,3740
2017-07-15T09:18:39.264Z,3705
2017-07-15T09:19:19.813Z,3610
2017-07-15T09:20:00.350Z,3320
2017-07-15T09:20:40.905Z,3605
2017-07-15T09:21:21.458Z,3190
2017-07-15T09:22:02.009Z,465
2017-07-15T09:22:42.558Z,1385
2017-07-15T09:23:23.113Z,920
2017-07-15T09:24:03.664Z,3265
2017-07-15T09:24:44.215Z,2350
2017-07-15T09:25:24.766Z,1340
2017-07-15T09:26:05.314Z,660
2017-07-15T09:26:45.867Z,605
2017-07-15T09:27:26.420Z,610
2017-07-15T09:28:06.973Z,615
2017-07-15T09:28:47.528Z,560
2017-07-15T09:29:28.072Z,600
2017-07-15T09:30:08.611Z,605
2017-07-15T09:30:49.221Z,580
2017-07-15T09:31:29.768Z,590
2017-07-15T09:32:10.362Z,600
2017-07-15T09:32:50.912Z,440
2017-07-15T09:33:31.466Z,525
2017-07-15T09:34:12.015Z,1825
2017-07-15T09:34:52.565Z,2895